Time;durP1;ratioP1;P1;durP2;ratioP2;P2;SDS_P1;SDS_P2;PMS_P1;PMS_P2;Temp;Humidity;BMP_temperature;BMP_pressure;BME280_temperature;BME280_humidity;BME280_pressure;Samples;Min_cycle;Max_cycle;Signal;HPM_P1;HPM_P2
2022/03/29 00:00:13;;;;;;;;;;;8.90;54.30;;;;;;5091149;28;19913;-71
2022/03/29 00:02:41;;;;;;;;;;;8.90;54.10;;;;;;5090337;28;19915;-73
2022/03/29 00:05:07;;;;;;;;;;;8.80;54.10;;;;;;5090529;28;20020;-73
2022/03/29 00:07:34;;;;;;;;;;;8.80;54.20;;;;;;5090622;28;20036;-72
2022/03/29 00:10:01;;;;;;;;;;;8.70;54.20;;;;;;5090532;28;19912;-72
2022/03/29 00:12:27;;;;;;;;;;;8.80;54.20;;;;;;5090425;28;19908;-73
2022/03/29 00:14:53;;;;;;;;;;;8.80;54.20;;;;;;5089154;28;19908;-73
2022/03/29 00:17:18;;;;;;;;;;;8.90;54.00;;;;;;5090504;28;19916;-72
2022/03/29 00:19:44;;;;;;;;;;;8.90;54.00;;;;;;5089093;28;19957;-72
2022/03/29 00:22:09;;;;;;;;;;;8.80;53.90;;;;;;5090272;28;19963;-72
2022/03/29 00:24:35;;;;;;;;;;;8.80;54.00;;;;;;5090102;28;19916;-72
2022/03/29 00:27:00;;;;;;;;;;;8.90;54.00;;;;;;5090167;28;19912;-73
2022/03/29 00:29:26;;;;;;;;;;;8.90;54.20;;;;;;5090227;28;19912;-73
2022/03/29 00:31:51;;;;;;;;;;;9.10;54.30;;;;;;5090108;28;19920;-73
2022/03/29 00:34:17;;;;;;;;;;;9.20;54.10;;;;;;5089973;28;19954;-72
2022/03/29 00:36:43;;;;;;;;;;;9.30;54.20;;;;;;5089989;28;19916;-73
2022/03/29 00:39:08;;;;;;;;;;;9.50;54.20;;;;;;5088852;28;19918;-73
2022/03/29 00:41:34;;;;;;;;;;;9.60;54.20;;;;;;5088326;28;20302;-73
2022/03/29 00:44:00;;;;;;;;;;;9.80;54.20;;;;;;5089856;28;19916;-73
2022/03/29 00:46:25;;;;;;;;;;;9.90;54.20;;;;;;5088323;28;19919;-72
2022/03/29 00:48:51;;;;;;;;;;;10.00;54.10;;;;;;5089794;28;19916;-72
2022/03/29 00:51:16;;;;;;;;;;;10.00;54.20;;;;;;5089639;28;19912;-72
2022/03/29 00:53:42;;;;;;;;;;;10.10;54.30;;;;;;5089649;28;19927;-72
2022/03/29 00:56:08;;;;;;;;;;;10.20;54.20;;;;;;5089605;28;20383;-72
2022/03/29 00:58:34;;;;;;;;;;;10.20;54.10;;;;;;5089520;28;20052;-73
2022/03/29 01:01:01;;;;;;;;;;;10.20;54.10;;;;;;5089480;28;19912;-72
2022/03/29 01:03:27;;;;;;;;;;;10.30;54.30;;;;;;5089662;28;20011;-73
2022/03/29 01:05:52;;;;;;;;;;;10.40;54.30;;;;;;5088107;28;20061;-73
2022/03/29 01:08:18;;;;;;;;;;;10.50;54.20;;;;;;5089254;28;20401;-73
2022/03/29 01:10:44;;;;;;;;;;;10.50;54.10;;;;;;5089206;28;20091;-72
2022/03/29 01:13:09;;;;;;;;;;;10.50;54.10;;;;;;5089196;28;20004;-73
2022/03/29 01:15:37;;;;;;;;;;;10.60;54.30;;;;;;5088389;28;19912;-73
2022/03/29 01:18:05;;;;;;;;;;;10.60;54.40;;;;;;5089330;28;20270;-73
2022/03/29 01:20:31;;;;;;;;;;;10.70;54.40;;;;;;5089032;28;19915;-72
2022/03/29 01:22:59;;;;;;;;;;;10.70;54.30;;;;;;5089421;28;19996;-73
2022/03/29 01:25:27;;;;;;;;;;;10.80;54.40;;;;;;5088805;28;19912;-73
2022/03/29 01:27:53;;;;;;;;;;;10.80;54.20;;;;;;5087656;28;19994;-73
2022/03/29 01:30:20;;;;;;;;;;;10.80;54.30;;;;;;5088998;28;19912;-72
2022/03/29 01:32:47;;;;;;;;;;;10.90;54.40;;;;;;5087490;28;20285;-73
2022/03/29 01:35:13;;;;;;;;;;;10.90;54.30;;;;;;5088878;28;20320;-73
2022/03/29 01:37:39;;;;;;;;;;;11.00;54.30;;;;;;5088874;28;19912;-73
2022/03/29 01:40:09;;;;;;;;;;;11.10;54.20;;;;;;5088699;28;19920;-73
2022/03/29 01:42:35;;;;;;;;;;;11.10;54.20;;;;;;5088437;28;19927;-73
2022/03/29 01:45:01;;;;;;;;;;;11.00;54.30;;;;;;5089042;28;19912;-73
2022/03/29 01:47:26;;;;;;;;;;;11.00;54.60;;;;;;5088608;28;19923;-72
2022/03/29 01:49:52;;;;;;;;;;;11.00;54.50;;;;;;5088701;28;20118;-72
2022/03/29 01:52:18;;;;;;;;;;;11.10;54.40;;;;;;5088527;28;19909;-73
2022/03/29 01:54:43;;;;;;;;;;;11.00;54.40;;;;;;5088404;28;19955;-73
2022/03/29 01:57:10;;;;;;;;;;;10.90;54.50;;;;;;5088647;28;19908;-72
2022/03/29 02:02:20;;;;;;;;;;;10.90;54.80;;;;;;5089388;28;19919;-72
2022/03/29 02:04:46;;;;;;;;;;;11.00;54.90;;;;;;5088299;28;19912;-73
2022/03/29 02:07:12;;;;;;;;;;;11.00;54.80;;;;;;5088320;28;19946;-73
2022/03/29 02:09:37;;;;;;;;;;;11.10;54.80;;;;;;5087001;28;19950;-72
2022/03/29 02:12:05;;;;;;;;;;;11.10;54.80;;;;;;5088563;28;19919;-72
2022/03/29 02:14:30;;;;;;;;;;;11.10;55.00;;;;;;5086814;28;19912;-72
2022/03/29 02:16:56;;;;;;;;;;;11.10;55.10;;;;;;5088310;28;20105;-72
2022/03/29 02:19:21;;;;;;;;;;;11.10;55.00;;;;;;5086925;28;19923;-72
2022/03/29 02:21:47;;;;;;;;;;;11.20;55.20;;;;;;5088634;28;19920;-73
2022/03/29 02:24:13;;;;;;;;;;;11.20;55.10;;;;;;5088258;28;19953;-72
2022/03/29 02:26:38;;;;;;;;;;;11.30;54.90;;;;;;5087985;28;19951;-72
2022/03/29 02:29:04;;;;;;;;;;;11.30;54.90;;;;;;5088231;28;19974;-72
2022/03/29 02:31:29;;;;;;;;;;;11.30;55.00;;;;;;5088117;28;19913;-73
2022/03/29 02:33:55;;;;;;;;;;;11.30;55.10;;;;;;5086806;28;19919;-73
2022/03/29 02:36:20;;;;;;;;;;;11.40;55.10;;;;;;5088076;28;19958;-72
2022/03/29 02:38:46;;;;;;;;;;;11.40;55.10;;;;;;5088078;28;20256;-72
2022/03/29 02:41:11;;;;;;;;;;;11.50;55.10;;;;;;5087935;28;19948;-72
2022/03/29 02:43:37;;;;;;;;;;;11.50;55.00;;;;;;5087833;28;20264;-72
2022/03/29 02:46:03;;;;;;;;;;;11.50;55.00;;;;;;5088169;28;19912;-72
2022/03/29 02:48:30;;;;;;;;;;;11.50;55.20;;;;;;5088383;28;19912;-73
2022/03/29 02:50:56;;;;;;;;;;;11.60;55.20;;;;;;5087791;28;19962;-72
2022/03/29 02:53:22;;;;;;;;;;;11.60;55.20;;;;;;5087940;28;19965;-72
2022/03/29 02:55:48;;;;;;;;;;;11.70;55.10;;;;;;5087830;28;20002;-73
2022/03/29 02:58:13;;;;;;;;;;;11.70;55.10;;;;;;5087897;28;20027;-73
2022/03/29 03:00:39;;;;;;;;;;;11.80;55.10;;;;;;5087759;28;19915;-72
2022/03/29 03:03:04;;;;;;;;;;;11.70;55.00;;;;;;5087877;28;19908;-72
2022/03/29 03:05:30;;;;;;;;;;;11.70;55.00;;;;;;5087848;28;20029;-72
2022/03/29 03:07:56;;;;;;;;;;;11.70;55.20;;;;;;5088005;28;20273;-73
2022/03/29 03:10:22;;;;;;;;;;;11.60;55.40;;;;;;5088012;28;19982;-73
2022/03/29 03:12:48;;;;;;;;;;;11.60;56.00;;;;;;5087657;28;19923;-73
2022/03/29 03:15:15;;;;;;;;;;;11.60;55.40;;;;;;5087707;28;19990;-72
2022/03/29 03:17:40;;;;;;;;;;;11.60;55.40;;;;;;5087653;28;19912;-73
2022/03/29 03:20:06;;;;;;;;;;;11.50;55.40;;;;;;5087626;28;19922;-72
2022/03/29 03:22:35;;;;;;;;;;;11.50;55.60;;;;;;5087538;28;19923;-72
2022/03/29 03:25:00;;;;;;;;;;;11.60;55.60;;;;;;5087474;28;19969;-73
2022/03/29 03:27:26;;;;;;;;;;;11.50;55.50;;;;;;5087688;28;19912;-73
2022/03/29 03:29:51;;;;;;;;;;;11.50;55.50;;;;;;5087911;28;19927;-73
2022/03/29 03:32:17;;;;;;;;;;;11.40;55.70;;;;;;5087533;28;19981;-73
2022/03/29 03:34:43;;;;;;;;;;;11.30;55.80;;;;;;5087506;28;19916;-73
2022/03/29 03:37:08;;;;;;;;;;;11.30;55.90;;;;;;5087694;28;19916;-73
2022/03/29 03:39:35;;;;;;;;;;;11.30;56.00;;;;;;5090770;28;19908;-73
2022/03/29 03:42:01;;;;;;;;;;;11.40;56.00;;;;;;5090796;28;19920;-73
2022/03/29 03:44:27;;;;;;;;;;;11.40;55.80;;;;;;5091000;28;19908;-73
2022/03/29 03:46:52;;;;;;;;;;;11.40;55.70;;;;;;5089518;28;19923;-73
2022/03/29 03:49:18;;;;;;;;;;;11.40;55.80;;;;;;5090818;28;19913;-72
2022/03/29 03:51:43;;;;;;;;;;;11.40;55.90;;;;;;5090733;28;19943;-73
2022/03/29 03:54:09;;;;;;;;;;;11.40;55.80;;;;;;5090863;28;19913;-72
2022/03/29 03:56:35;;;;;;;;;;;11.40;55.70;;;;;;5090816;28;19915;-72
2022/03/29 03:59:00;;;;;;;;;;;11.40;55.80;;;;;;5090792;28;19959;-73
2022/03/29 04:01:26;;;;;;;;;;;11.30;55.90;;;;;;5091103;28;19935;-73
2022/03/29 04:03:52;;;;;;;;;;;11.20;56.00;;;;;;5090548;28;19915;-72
2022/03/29 04:06:17;;;;;;;;;;;11.10;56.10;;;;;;5090509;28;19913;-73
2022/03/29 04:08:43;;;;;;;;;;;11.10;56.20;;;;;;5090608;28;19912;-72
2022/03/29 04:11:09;;;;;;;;;;;11.00;56.30;;;;;;5090391;28;20320;-73
2022/03/29 04:13:34;;;;;;;;;;;10.90;56.30;;;;;;5090451;28;19935;-73
2022/03/29 04:16:03;;;;;;;;;;;10.80;56.40;;;;;;5090441;28;19938;-73
2022/03/29 04:18:28;;;;;;;;;;;10.80;56.50;;;;;;5090524;28;19914;-73
2022/03/29 04:20:54;;;;;;;;;;;10.70;56.50;;;;;;5090257;28;20281;-73
2022/03/29 04:23:20;;;;;;;;;;;10.70;56.60;;;;;;5090281;28;19961;-73
2022/03/29 04:25:45;;;;;;;;;;;10.80;56.50;;;;;;5090205;28;20394;-73
2022/03/29 04:28:11;;;;;;;;;;;10.70;56.50;;;;;;5090191;28;19918;-72
2022/03/29 04:30:37;;;;;;;;;;;10.70;56.50;;;;;;5090046;28;19935;-73
2022/03/29 04:33:03;;;;;;;;;;;10.60;56.70;;;;;;5089924;28;20361;-73
2022/03/29 04:35:28;;;;;;;;;;;10.60;56.60;;;;;;5090069;28;19947;-73
2022/03/29 04:37:54;;;;;;;;;;;10.70;56.60;;;;;;5089981;28;20325;-72
2022/03/29 04:40:20;;;;;;;;;;;10.70;56.50;;;;;;5089905;28;19916;-73
2022/03/29 04:42:47;;;;;;;;;;;10.70;56.50;;;;;;5089496;28;19920;-73
2022/03/29 04:45:13;;;;;;;;;;;10.70;56.50;;;;;;5088533;28;20274;-73
2022/03/29 04:47:40;;;;;;;;;;;10.70;56.50;;;;;;5089726;28;19909;-73
2022/03/29 04:50:06;;;;;;;;;;;10.60;56.40;;;;;;5087290;28;20063;-73
2022/03/29 04:52:32;;;;;;;;;;;10.50;56.50;;;;;;5088322;28;19935;-73
2022/03/29 04:54:57;;;;;;;;;;;10.50;56.70;;;;;;5089688;28;20355;-73
2022/03/29 04:57:23;;;;;;;;;;;10.40;56.60;;;;;;5089384;28;20247;-73
2022/03/29 04:59:48;;;;;;;;;;;10.40;56.70;;;;;;5089553;28;19912;-73
2022/03/29 05:02:14;;;;;;;;;;;10.50;56.70;;;;;;5089434;28;19913;-73
2022/03/29 05:04:40;;;;;;;;;;;10.60;56.60;;;;;;5089549;28;19952;-73
2022/03/29 05:07:05;;;;;;;;;;;10.70;56.50;;;;;;5089631;28;20393;-72
2022/03/29 05:09:31;;;;;;;;;;;10.70;56.40;;;;;;5089416;28;19923;-72
2022/03/29 05:11:59;;;;;;;;;;;10.80;56.30;;;;;;5089168;28;19912;-73
2022/03/29 05:14:25;;;;;;;;;;;10.80;56.20;;;;;;5089311;28;20293;-72
2022/03/29 05:16:50;;;;;;;;;;;10.90;56.30;;;;;;5089263;28;19912;-73
2022/03/29 05:19:16;;;;;;;;;;;10.90;56.20;;;;;;5089006;28;20006;-73
2022/03/29 05:21:42;;;;;;;;;;;10.80;56.30;;;;;;5089189;28;20453;-73
2022/03/29 05:24:08;;;;;;;;;;;10.60;56.40;;;;;;5089237;28;20293;-73
2022/03/29 05:26:34;;;;;;;;;;;10.60;56.60;;;;;;5088985;28;19950;-73
2022/03/29 05:29:00;;;;;;;;;;;10.50;56.60;;;;;;5087545;28;19956;-73
2022/03/29 05:31:25;;;;;;;;;;;10.50;56.70;;;;;;5088956;28;19912;-73
2022/03/29 05:33:51;;;;;;;;;;;10.60;56.70;;;;;;5089063;28;19912;-72
2022/03/29 05:36:16;;;;;;;;;;;10.70;56.70;;;;;;5088760;28;19916;-73
2022/03/29 05:38:48;;;;;;;;;;;10.70;56.50;;;;;;5088839;28;19916;-73
2022/03/29 05:41:15;;;;;;;;;;;10.80;56.60;;;;;;5088749;28;19912;-73
2022/03/29 05:43:41;;;;;;;;;;;10.70;56.50;;;;;;5088572;28;19962;-72
2022/03/29 05:48:55;;;;;;;;;;;10.80;56.60;;;;;;5088987;28;19973;-73
2022/03/29 05:51:24;;;;;;;;;;;10.80;56.50;;;;;;5088284;28;19966;-73
2022/03/29 05:53:51;;;;;;;;;;;10.80;56.40;;;;;;5088385;28;19916;-73
2022/03/29 05:56:17;;;;;;;;;;;10.80;56.50;;;;;;5088264;28;20317;-72
2022/03/29 05:58:43;;;;;;;;;;;10.80;56.50;;;;;;5087911;28;19971;-73
2022/03/29 06:01:08;;;;;;;;;;;10.80;56.50;;;;;;5087874;28;19912;-73
2022/03/29 06:03:34;;;;;;;;;;;10.80;56.50;;;;;;5088298;28;19940;-73
2022/03/29 06:06:00;;;;;;;;;;;10.80;56.60;;;;;;5087976;28;19916;-73
2022/03/29 06:08:25;;;;;;;;;;;10.70;56.60;;;;;;5086697;28;20370;-72
2022/03/29 06:10:53;;;;;;;;;;;10.70;56.60;;;;;;5088107;28;19931;-72
2022/03/29 06:13:18;;;;;;;;;;;10.60;56.70;;;;;;5087744;28;19912;-72
2022/03/29 06:15:44;;;;;;;;;;;10.60;56.70;;;;;;5087627;28;20180;-72
2022/03/29 06:18:09;;;;;;;;;;;10.60;56.80;;;;;;5087721;28;19912;-72
2022/03/29 06:20:35;;;;;;;;;;;10.50;56.70;;;;;;5087795;28;20274;-72
2022/03/29 06:23:00;;;;;;;;;;;10.50;56.80;;;;;;5087977;28;20271;-72
2022/03/29 06:25:26;;;;;;;;;;;10.40;56.70;;;;;;5087768;28;19940;-72
2022/03/29 06:27:53;;;;;;;;;;;10.40;56.80;;;;;;5087636;28;19912;-73
2022/03/29 06:30:18;;;;;;;;;;;10.30;56.90;;;;;;5087737;28;20163;-73
2022/03/29 06:32:48;;;;;;;;;;;10.40;56.90;;;;;;5087476;28;20078;-73
2022/03/29 06:35:14;;;;;;;;;;;10.50;56.80;;;;;;5086273;28;19916;-73
2022/03/29 06:37:40;;;;;;;;;;;10.60;56.70;;;;;;5088201;28;20327;-73
2022/03/29 06:40:06;;;;;;;;;;;10.70;56.60;;;;;;5087528;28;19935;-72
2022/03/29 06:42:31;;;;;;;;;;;10.80;56.50;;;;;;5087429;28;19932;-73
2022/03/29 06:44:57;;;;;;;;;;;10.80;56.50;;;;;;5086464;28;19913;-73
2022/03/29 06:47:22;;;;;;;;;;;10.80;56.60;;;;;;5086367;28;19962;-73
2022/03/29 06:49:48;;;;;;;;;;;10.80;56.60;;;;;;5087867;28;19970;-72
2022/03/29 06:52:14;;;;;;;;;;;10.80;56.60;;;;;;5085591;28;20346;-73
2022/03/29 06:54:39;;;;;;;;;;;10.90;56.60;;;;;;5087535;28;20508;-73
2022/03/29 06:57:05;;;;;;;;;;;11.00;56.60;;;;;;5087482;28;20358;-73
2022/03/29 06:59:31;;;;;;;;;;;11.00;56.50;;;;;;5086964;28;19912;-73
2022/03/29 07:01:56;;;;;;;;;;;11.00;56.60;;;;;;5087524;28;20278;-73
2022/03/29 07:04:22;;;;;;;;;;;11.00;56.60;;;;;;5087549;28;19915;-73
2022/03/29 07:06:47;;;;;;;;;;;11.00;56.60;;;;;;5085852;28;19920;-73
2022/03/29 07:11:57;;;;;;;;;;;11.00;56.70;;;;;;5087778;28;19919;-73
2022/03/29 07:14:23;;;;;;;;;;;11.00;56.80;;;;;;5090774;28;19912;-73
2022/03/29 07:16:48;;;;;;;;;;;11.00;56.80;;;;;;5091223;28;19919;-72
2022/03/29 07:19:14;;;;;;;;;;;11.00;56.80;;;;;;5091205;28;19951;-73
2022/03/29 07:21:42;;;;;;;;;;;11.10;56.90;;;;;;5091081;28;19974;-73
2022/03/29 07:24:08;;;;;;;;;;;11.20;56.90;;;;;;5090693;28;19912;-73
2022/03/29 07:26:35;;;;;;;;;;;11.30;56.70;;;;;;5090685;28;19912;-73
2022/03/29 07:29:01;;;;;;;;;;;11.30;56.80;;;;;;5089145;28;19912;-70
2022/03/29 07:31:26;;;;;;;;;;;11.40;56.60;;;;;;5089982;28;20009;-73
2022/03/29 07:33:52;;;;;;;;;;;11.40;56.50;;;;;;5090426;28;20397;-73
2022/03/29 07:36:17;;;;;;;;;;;11.50;56.60;;;;;;5089056;28;19919;-71
2022/03/29 07:38:43;;;;;;;;;;;11.50;56.60;;;;;;5090863;28;19916;-71
2022/03/29 07:41:08;;;;;;;;;;;11.50;56.80;;;;;;5090418;28;19908;-72
2022/03/29 07:43:34;;;;;;;;;;;11.50;56.70;;;;;;5089801;28;19928;-72
2022/03/29 07:45:59;;;;;;;;;;;11.40;57.30;;;;;;5089633;28;20405;-72
2022/03/29 07:48:25;;;;;;;;;;;11.40;57.30;;;;;;5090185;28;19965;-72
2022/03/29 07:50:51;;;;;;;;;;;11.30;57.70;;;;;;5090169;28;19908;-73
2022/03/29 07:53:17;;;;;;;;;;;11.30;57.70;;;;;;5090732;28;19951;-72
2022/03/29 07:55:43;;;;;;;;;;;11.20;57.60;;;;;;5089794;28;19943;-72
2022/03/29 07:58:09;;;;;;;;;;;11.20;58.30;;;;;;5090019;28;19912;-73
2022/03/29 08:00:37;;;;;;;;;;;11.20;58.10;;;;;;5088509;28;19935;-73
2022/03/29 08:03:13;;;;;;;;;;;11.30;58.10;;;;;;5089622;28;19916;-73
2022/03/29 08:05:42;;;;;;;;;;;11.40;58.20;;;;;;5089675;28;19998;-72
2022/03/29 08:08:10;;;;;;;;;;;11.40;58.40;;;;;;5089539;28;20511;-73
2022/03/29 08:10:36;;;;;;;;;;;11.50;58.30;;;;;;5089377;28;20390;-73
2022/03/29 08:13:03;;;;;;;;;;;11.60;58.50;;;;;;5089604;28;19994;-64
2022/03/29 08:15:28;;;;;;;;;;;11.60;58.60;;;;;;5088144;28;19950;-73
2022/03/29 08:17:57;;;;;;;;;;;11.70;58.60;;;;;;5089951;28;20355;-72
2022/03/29 08:20:23;;;;;;;;;;;11.70;58.40;;;;;;5089767;28;19961;-73
2022/03/29 08:22:49;;;;;;;;;;;11.70;58.30;;;;;;5090220;28;19913;-73
2022/03/29 08:25:15;;;;;;;;;;;11.70;58.30;;;;;;5089308;28;19962;-73
2022/03/29 08:27:42;;;;;;;;;;;11.70;58.30;;;;;;5088839;28;20382;-72
2022/03/29 08:30:07;;;;;;;;;;;11.70;58.10;;;;;;5086583;28;20381;-73
2022/03/29 08:32:35;;;;;;;;;;;11.80;58.30;;;;;;5087579;28;19915;-73
2022/03/29 08:35:01;;;;;;;;;;;11.80;58.50;;;;;;5087471;28;19927;-73
2022/03/29 08:37:26;;;;;;;;;;;11.80;58.40;;;;;;5087962;28;20348;-73
2022/03/29 08:39:52;;;;;;;;;;;11.80;58.40;;;;;;5087777;28;19916;-72
2022/03/29 08:42:18;;;;;;;;;;;11.80;59.00;;;;;;5087124;28;19920;-73
2022/03/29 08:44:44;;;;;;;;;;;11.90;58.50;;;;;;5086141;28;19908;-73
2022/03/29 08:47:10;;;;;;;;;;;11.90;58.60;;;;;;5088749;28;19923;-73
2022/03/29 08:49:36;;;;;;;;;;;11.90;58.50;;;;;;5089301;28;19969;-72
2022/03/29 08:52:05;;;;;;;;;;;12.00;58.60;;;;;;5090005;28;19912;-73
2022/03/29 08:54:32;;;;;;;;;;;12.10;58.80;;;;;;5089496;28;20364;-72
2022/03/29 08:56:58;;;;;;;;;;;12.20;58.70;;;;;;5088868;28;19913;-73
2022/03/29 08:59:25;;;;;;;;;;;12.20;59.00;;;;;;5089613;28;19913;-72
2022/03/29 09:01:51;;;;;;;;;;;12.30;59.00;;;;;;5088873;28;19947;-72
2022/03/29 09:04:20;;;;;;;;;;;12.40;58.90;;;;;;5088771;28;20366;-72
2022/03/29 09:06:55;;;;;;;;;;;12.50;58.80;;;;;;5086579;28;20496;-69
2022/03/29 09:09:33;;;;;;;;;;;12.70;59.10;;;;;;5089595;28;19924;-73
2022/03/29 09:12:19;;;;;;;;;;;12.70;58.90;;;;;;5089275;28;19908;-73
2022/03/29 09:14:51;;;;;;;;;;;12.80;58.70;;;;;;5087702;28;20014;-73
2022/03/29 09:17:35;;;;;;;;;;;12.90;58.90;;;;;;5087994;28;19908;-73
2022/03/29 09:20:03;;;;;;;;;;;12.90;58.80;;;;;;5088974;28;19912;-73
2022/03/29 09:22:34;;;;;;;;;;;12.90;59.40;;;;;;5089465;28;19912;-72
2022/03/29 09:25:00;;;;;;;;;;;12.90;59.50;;;;;;5089001;28;20449;-72
2022/03/29 09:27:25;;;;;;;;;;;12.80;59.40;;;;;;5087590;28;19919;-73
2022/03/29 09:30:07;;;;;;;;;;;12.90;59.50;;;;;;5085195;28;19927;-71
2022/03/29 09:32:32;;;;;;;;;;;12.90;59.70;;;;;;5086685;28;19921;-73
2022/03/29 09:35:05;;;;;;;;;;;12.90;59.50;;;;;;5088434;28;19916;-73
2022/03/29 09:37:34;;;;;;;;;;;13.00;59.50;;;;;;5068312;28;19916;-73
2022/03/29 09:40:00;;;;;;;;;;;13.00;59.60;;;;;;5078937;28;20389;-75
2022/03/29 09:42:27;;;;;;;;;;;12.90;59.70;;;;;;5090151;28;19920;-73
2022/03/29 09:44:59;;;;;;;;;;;12.90;59.80;;;;;;5093399;28;20045;-73
2022/03/29 09:47:30;;;;;;;;;;;12.80;59.80;;;;;;5093481;28;20310;-72
2022/03/29 09:50:06;;;;;;;;;;;12.80;60.00;;;;;;5088625;28;19908;-71
2022/03/29 09:52:41;;;;;;;;;;;12.70;60.10;;;;;;5092446;28;20338;-71
2022/03/29 09:55:10;;;;;;;;;;;12.60;60.10;;;;;;5089215;28;20381;-72
2022/03/29 09:57:37;;;;;;;;;;;12.60;60.10;;;;;;5097926;28;20344;-72
2022/03/29 10:00:10;;;;;;;;;;;12.60;60.30;;;;;;5096101;28;19915;-72
2022/03/29 10:02:37;;;;;;;;;;;12.70;60.20;;;;;;5096531;28;20300;-73
2022/03/29 10:05:03;;;;;;;;;;;12.70;60.40;;;;;;5097538;28;20334;-74
2022/03/29 10:07:34;;;;;;;;;;;12.80;60.30;;;;;;5098490;28;19912;-73
2022/03/29 10:10:00;;;;;;;;;;;12.80;60.40;;;;;;5105075;28;19960;-73
2022/03/29 10:12:25;;;;;;;;;;;12.90;60.50;;;;;;5100258;28;19907;-73
2022/03/29 10:14:51;;;;;;;;;;;12.80;60.60;;;;;;5101963;28;20270;-72
2022/03/29 10:17:17;;;;;;;;;;;12.80;60.90;;;;;;5096770;28;19908;-73
2022/03/29 10:19:44;;;;;;;;;;;12.80;60.70;;;;;;5081220;28;19919;-72
2022/03/29 10:22:12;;;;;;;;;;;12.80;60.60;;;;;;5099242;28;19947;-73
2022/03/29 10:24:38;;;;;;;;;;;12.80;60.50;;;;;;5098613;28;20550;-73
2022/03/29 10:27:04;;;;;;;;;;;12.80;60.30;;;;;;5097074;28;19965;-73
2022/03/29 10:29:30;;;;;;;;;;;12.80;60.80;;;;;;5093751;28;19954;-73
2022/03/29 10:31:57;;;;;;;;;;;12.80;60.30;;;;;;5098575;28;19939;-73
2022/03/29 10:34:30;;;;;;;;;;;12.80;60.30;;;;;;5094287;28;19994;-73
2022/03/29 10:37:07;;;;;;;;;;;13.00;60.60;;;;;;5098838;28;19919;-74
2022/03/29 10:39:38;;;;;;;;;;;13.10;60.50;;;;;;5099098;28;19950;-73
2022/03/29 10:42:22;;;;;;;;;;;13.30;60.40;;;;;;5099703;28;19927;-73
2022/03/29 10:45:14;;;;;;;;;;;13.50;60.20;;;;;;5090750;28;20285;-73
2022/03/29 10:47:41;;;;;;;;;;;13.60;60.20;;;;;;5094725;28;20345;-73
2022/03/29 10:50:10;;;;;;;;;;;13.70;60.30;;;;;;5088886;28;19911;-73
2022/03/29 10:52:38;;;;;;;;;;;13.80;60.30;;;;;;5100664;28;19975;-73
2022/03/29 10:55:25;;;;;;;;;;;13.80;60.70;;;;;;5102138;28;20315;-73
2022/03/29 10:58:05;;;;;;;;;;;13.90;60.20;;;;;;5093850;28;19908;-73
2022/03/29 11:00:31;;;;;;;;;;;13.90;60.10;;;;;;5097756;28;19912;-73
2022/03/29 11:03:03;;;;;;;;;;;13.90;60.10;;;;;;5092308;28;19955;-73
2022/03/29 11:05:29;;;;;;;;;;;13.90;60.00;;;;;;5099037;28;20285;-73
2022/03/29 11:07:54;;;;;;;;;;;14.10;60.10;;;;;;5100549;28;19914;-73
2022/03/29 11:10:21;;;;;;;;;;;14.10;59.90;;;;;;5100956;28;20257;-73
2022/03/29 11:12:56;;;;;;;;;;;14.20;59.90;;;;;;5099575;28;19912;-73
2022/03/29 11:15:22;;;;;;;;;;;14.20;59.90;;;;;;5091823;28;19912;-73
2022/03/29 11:17:47;;;;;;;;;;;14.30;60.00;;;;;;5090467;28;19918;-72
2022/03/29 11:20:27;;;;;;;;;;;14.30;60.00;;;;;;5090247;28;19912;-72
2022/03/29 11:22:52;;;;;;;;;;;14.50;60.10;;;;;;5090963;28;19965;-72
2022/03/29 11:25:22;;;;;;;;;;;14.80;60.10;;;;;;5091026;28;19912;-71
2022/03/29 11:27:48;;;;;;;;;;;15.10;60.00;;;;;;5091222;28;20393;-72
2022/03/29 11:30:14;;;;;;;;;;;15.40;59.90;;;;;;5090634;28;19912;-72
2022/03/29 11:32:40;;;;;;;;;;;15.50;59.70;;;;;;5090043;28;19912;-72
2022/03/29 11:35:08;;;;;;;;;;;15.70;59.60;;;;;;5091470;28;20266;-73
2022/03/29 11:37:37;;;;;;;;;;;15.80;59.50;;;;;;5091088;28;19919;-71
2022/03/29 11:40:04;;;;;;;;;;;15.90;59.60;;;;;;5089782;28;19908;-73
2022/03/29 11:42:44;;;;;;;;;;;16.20;60.00;;;;;;5090725;28;20464;-73
2022/03/29 11:45:09;;;;;;;;;;;16.90;60.50;;;;;;5090266;28;19908;-71
2022/03/29 11:47:36;;;;;;;;;;;17.80;60.40;;;;;;5090565;28;19998;-75
2022/03/29 11:50:02;;;;;;;;;;;18.20;60.20;;;;;;5089970;28;20373;-72
2022/03/29 11:52:34;;;;;;;;;;;18.50;60.20;;;;;;5090619;28;19916;-73
2022/03/29 11:54:59;;;;;;;;;;;18.90;60.00;;;;;;5090176;28;20011;-72
2022/03/29 11:57:26;;;;;;;;;;;19.00;59.50;;;;;;5090173;28;20406;-71
2022/03/29 11:59:53;;;;;;;;;;;18.90;59.30;;;;;;5089762;28;20331;-72
2022/03/29 12:02:21;;;;;;;;;;;18.70;59.40;;;;;;5091060;28;19998;-72
2022/03/29 12:04:48;;;;;;;;;;;18.60;59.50;;;;;;5089718;28;19909;-73
2022/03/29 12:07:14;;;;;;;;;;;18.50;59.60;;;;;;5089877;28;19913;-64
2022/03/29 12:09:44;;;;;;;;;;;18.30;59.50;;;;;;5090299;28;19957;-72
2022/03/29 12:12:10;;;;;;;;;;;18.30;59.60;;;;;;5089446;28;20354;-71
2022/03/29 12:14:36;;;;;;;;;;;18.10;59.40;;;;;;5090118;28;19916;-72
2022/03/29 12:17:03;;;;;;;;;;;17.90;59.90;;;;;;5090358;28;20285;-72
2022/03/29 12:19:30;;;;;;;;;;;17.80;59.50;;;;;;5088954;28;19912;-72
2022/03/29 12:22:02;;;;;;;;;;;17.60;59.30;;;;;;5088416;28;20585;-73
2022/03/29 12:24:55;;;;;;;;;;;17.40;59.20;;;;;;5084709;28;19919;-72
2022/03/29 12:27:21;;;;;;;;;;;17.20;59.50;;;;;;5082482;28;19930;-74
2022/03/29 12:29:49;;;;;;;;;;;17.20;59.80;;;;;;5089870;28;19999;-76
2022/03/29 12:32:15;;;;;;;;;;;17.30;60.10;;;;;;5090732;28;19909;-74
2022/03/29 12:34:50;;;;;;;;;;;17.60;60.20;;;;;;5090293;28;19916;-74
2022/03/29 12:37:16;;;;;;;;;;;17.80;60.00;;;;;;5087621;28;19912;-73
2022/03/29 12:39:42;;;;;;;;;;;18.10;59.80;;;;;;5089889;28;19938;-73
2022/03/29 12:42:13;;;;;;;;;;;18.20;60.00;;;;;;5089944;28;19926;-75
2022/03/29 12:44:43;;;;;;;;;;;18.60;61.00;;;;;;5088809;28;20373;-75
2022/03/29 12:47:09;;;;;;;;;;;19.10;60.70;;;;;;5088595;28;19916;-74
2022/03/29 12:49:36;;;;;;;;;;;19.70;61.00;;;;;;5090457;28;19908;-75
2022/03/29 12:52:03;;;;;;;;;;;20.30;61.10;;;;;;5089823;28;19923;-74
2022/03/29 12:54:41;;;;;;;;;;;20.50;60.20;;;;;;5089684;28;19908;-74
2022/03/29 12:57:08;;;;;;;;;;;20.20;59.60;;;;;;5089991;28;19908;-74
2022/03/29 12:59:38;;;;;;;;;;;19.80;59.70;;;;;;5089958;28;20288;-75
2022/03/29 13:02:17;;;;;;;;;;;19.50;59.60;;;;;;5089519;28;19912;-74
2022/03/29 13:04:53;;;;;;;;;;;19.30;59.90;;;;;;5088510;28;19908;-73
2022/03/29 13:07:48;;;;;;;;;;;19.50;60.80;;;;;;5086612;28;19958;-74
2022/03/29 13:10:21;;;;;;;;;;;20.30;60.90;;;;;;5086737;28;19908;-74
2022/03/29 13:12:48;;;;;;;;;;;20.60;59.70;;;;;;5089303;28;19908;-75
2022/03/29 13:15:39;;;;;;;;;;;20.40;59.20;;;;;;5089411;28;19930;-74
2022/03/29 13:18:16;;;;;;;;;;;20.30;59.30;;;;;;5085467;28;20549;-75
2022/03/29 13:20:42;;;;;;;;;;;20.30;59.40;;;;;;5089527;28;19915;-75
2022/03/29 13:23:08;;;;;;;;;;;20.60;59.80;;;;;;5088989;28;19920;-75
2022/03/29 13:25:34;;;;;;;;;;;20.90;60.00;;;;;;5089228;28;19957;-75
2022/03/29 13:28:00;;;;;;;;;;;21.10;59.90;;;;;;5087673;28;19919;-74
2022/03/29 13:30:25;;;;;;;;;;;21.20;60.10;;;;;;5088964;28;19927;-73
2022/03/29 13:32:59;;;;;;;;;;;21.20;59.90;;;;;;5146839;27;19912;-73
2022/03/29 13:35:24;;;;;;;;;;;21.00;59.70;;;;;;5147484;27;19911;-73
2022/03/29 13:37:50;;;;;;;;;;;21.10;59.80;;;;;;5146669;27;20306;-74
2022/03/29 13:40:15;;;;;;;;;;;21.30;59.30;;;;;;5128540;27;19958;-74
2022/03/29 13:42:41;;;;;;;;;;;21.20;59.00;;;;;;5166187;27;19960;-73
2022/03/29 13:45:09;;;;;;;;;;;20.90;59.00;;;;;;5167396;27;19948;-73
2022/03/29 13:47:35;;;;;;;;;;;20.50;59.00;;;;;;5167243;27;19907;-73
2022/03/29 13:50:01;;;;;;;;;;;20.30;58.90;;;;;;5167356;27;20222;-73
2022/03/29 13:52:27;;;;;;;;;;;20.20;58.90;;;;;;5166525;27;19911;-72
2022/03/29 13:54:53;;;;;;;;;;;20.30;58.90;;;;;;5147845;27;19919;-72
2022/03/29 13:57:18;;;;;;;;;;;20.50;58.50;;;;;;5166781;27;19924;-72
2022/03/29 13:59:44;;;;;;;;;;;20.10;58.20;;;;;;5147322;27;19922;-73
2022/03/29 14:02:09;;;;;;;;;;;19.70;58.40;;;;;;5166214;27;19918;-73
2022/03/29 14:04:35;;;;;;;;;;;19.30;58.40;;;;;;5166449;27;19972;-73
2022/03/29 14:07:01;;;;;;;;;;;19.00;58.60;;;;;;5166401;27;19926;-76
2022/03/29 14:09:27;;;;;;;;;;;18.70;58.80;;;;;;5130033;27;19930;-73
2022/03/29 14:11:53;;;;;;;;;;;18.50;59.00;;;;;;5166388;27;20379;-73
2022/03/29 14:14:19;;;;;;;;;;;18.50;59.30;;;;;;5148519;27;19913;-73
2022/03/29 14:16:51;;;;;;;;;;;18.90;59.10;;;;;;5148352;27;19919;-72
2022/03/29 14:19:17;;;;;;;;;;;19.00;58.70;;;;;;5146816;27;19930;-72
2022/03/29 14:21:43;;;;;;;;;;;19.00;58.40;;;;;;5148070;27;19919;-72
2022/03/29 14:24:13;;;;;;;;;;;18.70;58.30;;;;;;5148176;27;20325;-72
2022/03/29 14:26:45;;;;;;;;;;;18.60;58.40;;;;;;5148263;27;19918;-72